sensor_id;sensor_type;location;lat;lon;timestamp;P1;durP1;ratioP1;P2;durP2;ratioP2
72235;SDS011;60146;52.498;13.462;2023-04-24T00:01:26;7.60;;;3.77;;
72235;SDS011;60146;52.498;13.462;2023-04-24T00:03:51;10.07;;;4.83;;
72235;SDS011;60146;52.498;13.462;2023-04-24T00:06:17;6.57;;;3.80;;
72235;SDS011;60146;52.498;13.462;2023-04-24T00:08:42;7.53;;;4.13;;
72235;SDS011;60146;52.498;13.462;2023-04-24T00:11:08;8.07;;;4.43;;
72235;SDS011;60146;52.498;13.462;2023-04-24T00:13:34;8.13;;;4.30;;
72235;SDS011;60146;52.498;13.462;2023-04-24T00:16:00;8.60;;;4.60;;
72235;SDS011;60146;52.498;13.462;2023-04-24T00:18:25;7.03;;;3.80;;
72235;SDS011;60146;52.498;13.462;2023-04-24T00:20:51;7.20;;;4.10;;
72235;SDS011;60146;52.498;13.462;2023-04-24T00:23:16;6.77;;;4.07;;
72235;SDS011;60146;52.498;13.462;2023-04-24T00:25:41;6.07;;;3.93;;
72235;SDS011;60146;52.498;13.462;2023-04-24T00:28:07;5.90;;;3.80;;
72235;SDS011;60146;52.498;13.462;2023-04-24T00:30:32;15.03;;;4.50;;
72235;SDS011;60146;52.498;13.462;2023-04-24T00:32:57;7.60;;;4.20;;
72235;SDS011;60146;52.498;13.462;2023-04-24T00:35:23;8.17;;;4.00;;
72235;SDS011;60146;52.498;13.462;2023-04-24T00:37:48;9.40;;;4.20;;
72235;SDS011;60146;52.498;13.462;2023-04-24T00:40:14;9.73;;;4.87;;
72235;SDS011;60146;52.498;13.462;2023-04-24T00:42:39;6.97;;;4.43;;
72235;SDS011;60146;52.498;13.462;2023-04-24T00:45:05;6.67;;;4.20;;
72235;SDS011;60146;52.498;13.462;2023-04-24T00:47:32;8.23;;;4.30;;
72235;SDS011;60146;52.498;13.462;2023-04-24T00:49:58;7.27;;;4.87;;
72235;SDS011;60146;52.498;13.462;2023-04-24T00:52:25;7.00;;;4.40;;
72235;SDS011;60146;52.498;13.462;2023-04-24T00:55:00;8.83;;;4.50;;
72235;SDS011;60146;52.498;13.462;2023-04-24T00:57:25;9.80;;;5.27;;
72235;SDS011;60146;52.498;13.462;2023-04-24T00:59:51;9.57;;;5.20;;
72235;SDS011;60146;52.498;13.462;2023-04-24T01:02:18;12.60;;;6.40;;
72235;SDS011;60146;52.498;13.462;2023-04-24T01:04:44;10.50;;;6.27;;
72235;SDS011;60146;52.498;13.462;2023-04-24T01:07:10;9.50;;;5.37;;
72235;SDS011;60146;52.498;13.462;2023-04-24T01:09:39;12.47;;;7.60;;
72235;SDS011;60146;52.498;13.462;2023-04-24T01:12:07;10.30;;;6.03;;
72235;SDS011;60146;52.498;13.462;2023-04-24T01:14:32;7.70;;;4.47;;
72235;SDS011;60146;52.498;13.462;2023-04-24T01:16:58;6.53;;;4.03;;
72235;SDS011;60146;52.498;13.462;2023-04-24T01:19:23;5.80;;;3.60;;
72235;SDS011;60146;52.498;13.462;2023-04-24T01:21:50;6.93;;;3.87;;
72235;SDS011;60146;52.498;13.462;2023-04-24T01:24:17;6.47;;;3.80;;
72235;SDS011;60146;52.498;13.462;2023-04-24T01:26:44;6.20;;;3.60;;
72235;SDS011;60146;52.498;13.462;2023-04-24T01:29:10;5.30;;;3.63;;
72235;SDS011;60146;52.498;13.462;2023-04-24T01:31:36;5.50;;;3.73;;
72235;SDS011;60146;52.498;13.462;2023-04-24T01:34:02;7.53;;;3.70;;
72235;SDS011;60146;52.498;13.462;2023-04-24T01:36:27;7.27;;;4.23;;
72235;SDS011;60146;52.498;13.462;2023-04-24T01:38:54;9.70;;;4.57;;
72235;SDS011;60146;52.498;13.462;2023-04-24T01:41:19;9.87;;;4.47;;
72235;SDS011;60146;52.498;13.462;2023-04-24T01:43:45;9.43;;;4.60;;
72235;SDS011;60146;52.498;13.462;2023-04-24T01:46:11;12.70;;;5.20;;
72235;SDS011;60146;52.498;13.462;2023-04-24T01:48:36;8.30;;;3.97;;
72235;SDS011;60146;52.498;13.462;2023-04-24T01:51:02;7.67;;;4.30;;
72235;SDS011;60146;52.498;13.462;2023-04-24T01:53:30;7.33;;;4.23;;
72235;SDS011;60146;52.498;13.462;2023-04-24T01:55:57;6.03;;;3.97;;
72235;SDS011;60146;52.498;13.462;2023-04-24T01:58:26;7.90;;;4.70;;
72235;SDS011;60146;52.498;13.462;2023-04-24T02:00:54;8.33;;;4.60;;
72235;SDS011;60146;52.498;13.462;2023-04-24T02:03:24;5.50;;;3.87;;
72235;SDS011;60146;52.498;13.462;2023-04-24T02:05:54;8.68;;;4.40;;
72235;SDS011;60146;52.498;13.462;2023-04-24T02:08:21;6.50;;;3.83;;
72235;SDS011;60146;52.498;13.462;2023-04-24T02:10:48;7.93;;;4.20;;
72235;SDS011;60146;52.498;13.462;2023-04-24T02:13:18;5.47;;;3.57;;
72235;SDS011;60146;52.498;13.462;2023-04-24T02:16:53;7.30;;;4.50;;
72235;SDS011;60146;52.498;13.462;2023-04-24T02:20:09;6.43;;;4.00;;
72235;SDS011;60146;52.498;13.462;2023-04-24T02:22:44;8.73;;;4.33;;
72235;SDS011;60146;52.498;13.462;2023-04-24T02:27:39;7.93;;;4.20;;
72235;SDS011;60146;52.498;13.462;2023-04-24T02:30:05;8.17;;;4.50;;
72235;SDS011;60146;52.498;13.462;2023-04-24T02:32:32;6.67;;;4.27;;
72235;SDS011;60146;52.498;13.462;2023-04-24T02:34:59;7.20;;;4.30;;
72235;SDS011;60146;52.498;13.462;2023-04-24T02:37:26;6.30;;;4.13;;
72235;SDS011;60146;52.498;13.462;2023-04-24T02:40:56;8.30;;;4.70;;
72235;SDS011;60146;52.498;13.462;2023-04-24T02:43:55;6.53;;;4.20;;
72235;SDS011;60146;52.498;13.462;2023-04-24T02:46:59;8.40;;;4.68;;
72235;SDS011;60146;52.498;13.462;2023-04-24T02:49:25;7.40;;;4.60;;
72235;SDS011;60146;52.498;13.462;2023-04-24T02:51:51;8.60;;;4.60;;
72235;SDS011;60146;52.498;13.462;2023-04-24T02:54:16;7.53;;;4.47;;
72235;SDS011;60146;52.498;13.462;2023-04-24T02:56:41;8.07;;;4.40;;
72235;SDS011;60146;52.498;13.462;2023-04-24T02:59:07;7.90;;;4.37;;
72235;SDS011;60146;52.498;13.462;2023-04-24T03:01:33;7.87;;;4.57;;
72235;SDS011;60146;52.498;13.462;2023-04-24T03:03:58;9.23;;;4.63;;
72235;SDS011;60146;52.498;13.462;2023-04-24T03:06:24;7.40;;;4.53;;
72235;SDS011;60146;52.498;13.462;2023-04-24T03:08:49;8.17;;;4.53;;
72235;SDS011;60146;52.498;13.462;2023-04-24T03:11:15;7.80;;;4.97;;
72235;SDS011;60146;52.498;13.462;2023-04-24T03:13:40;6.60;;;4.40;;
72235;SDS011;60146;52.498;13.462;2023-04-24T03:16:06;8.20;;;4.87;;
72235;SDS011;60146;52.498;13.462;2023-04-24T03:18:31;7.23;;;4.37;;
72235;SDS011;60146;52.498;13.462;2023-04-24T03:20:56;6.60;;;4.20;;
72235;SDS011;60146;52.498;13.462;2023-04-24T03:23:22;12.10;;;5.67;;
72235;SDS011;60146;52.498;13.462;2023-04-24T03:25:47;10.13;;;5.10;;
72235;SDS011;60146;52.498;13.462;2023-04-24T03:28:13;10.97;;;5.07;;
72235;SDS011;60146;52.498;13.462;2023-04-24T03:30:39;13.83;;;5.90;;
72235;SDS011;60146;52.498;13.462;2023-04-24T03:33:04;15.70;;;5.83;;
72235;SDS011;60146;52.498;13.462;2023-04-24T03:35:30;11.43;;;5.30;;
72235;SDS011;60146;52.498;13.462;2023-04-24T03:37:56;12.13;;;5.63;;
72235;SDS011;60146;52.498;13.462;2023-04-24T03:40:21;11.10;;;5.50;;
72235;SDS011;60146;52.498;13.462;2023-04-24T03:42:46;10.47;;;5.33;;
72235;SDS011;60146;52.498;13.462;2023-04-24T03:45:12;9.97;;;5.10;;
72235;SDS011;60146;52.498;13.462;2023-04-24T03:47:37;10.87;;;4.77;;
72235;SDS011;60146;52.498;13.462;2023-04-24T03:50:03;10.20;;;5.00;;
72235;SDS011;60146;52.498;13.462;2023-04-24T03:52:28;6.87;;;4.10;;
72235;SDS011;60146;52.498;13.462;2023-04-24T03:54:53;7.77;;;4.20;;
72235;SDS011;60146;52.498;13.462;2023-04-24T03:57:20;7.00;;;4.27;;
72235;SDS011;60146;52.498;13.462;2023-04-24T03:59:46;6.23;;;4.40;;
72235;SDS011;60146;52.498;13.462;2023-04-24T04:02:11;8.60;;;4.50;;
72235;SDS011;60146;52.498;13.462;2023-04-24T04:04:36;7.07;;;4.10;;
72235;SDS011;60146;52.498;13.462;2023-04-24T04:07:02;7.23;;;4.10;;
72235;SDS011;60146;52.498;13.462;2023-04-24T04:09:28;7.47;;;4.13;;
72235;SDS011;60146;52.498;13.462;2023-04-24T04:11:53;6.53;;;4.47;;
72235;SDS011;60146;52.498;13.462;2023-04-24T04:14:19;7.00;;;4.33;;
72235;SDS011;60146;52.498;13.462;2023-04-24T04:16:44;7.10;;;3.97;;
72235;SDS011;60146;52.498;13.462;2023-04-24T04:19:10;8.53;;;4.40;;
72235;SDS011;60146;52.498;13.462;2023-04-24T04:21:35;6.17;;;3.87;;
72235;SDS011;60146;52.498;13.462;2023-04-24T04:24:00;6.13;;;4.10;;
72235;SDS011;60146;52.498;13.462;2023-04-24T04:26:26;6.47;;;3.97;;
72235;SDS011;60146;52.498;13.462;2023-04-24T04:28:52;5.70;;;3.70;;
72235;SDS011;60146;52.498;13.462;2023-04-24T04:31:19;6.13;;;3.77;;
72235;SDS011;60146;52.498;13.462;2023-04-24T04:33:45;6.50;;;4.27;;
72235;SDS011;60146;52.498;13.462;2023-04-24T04:36:10;6.53;;;4.20;;
72235;SDS011;60146;52.498;13.462;2023-04-24T04:38:37;6.60;;;3.80;;
72235;SDS011;60146;52.498;13.462;2023-04-24T04:41:02;7.20;;;4.23;;
72235;SDS011;60146;52.498;13.462;2023-04-24T04:43:27;6.47;;;3.87;;
72235;SDS011;60146;52.498;13.462;2023-04-24T04:45:53;6.73;;;3.77;;
72235;SDS011;60146;52.498;13.462;2023-04-24T04:48:19;6.77;;;4.10;;
72235;SDS011;60146;52.498;13.462;2023-04-24T04:50:45;8.87;;;3.97;;
72235;SDS011;60146;52.498;13.462;2023-04-24T04:53:10;5.80;;;3.93;;
72235;SDS011;60146;52.498;13.462;2023-04-24T04:55:36;7.47;;;3.80;;
72235;SDS011;60146;52.498;13.462;2023-04-24T04:58:02;6.20;;;3.90;;
72235;SDS011;60146;52.498;13.462;2023-04-24T05:00:27;7.90;;;4.60;;
72235;SDS011;60146;52.498;13.462;2023-04-24T05:02:54;5.70;;;3.70;;
72235;SDS011;60146;52.498;13.462;2023-04-24T05:05:19;6.33;;;3.97;;
72235;SDS011;60146;52.498;13.462;2023-04-24T05:07:45;6.90;;;4.03;;
72235;SDS011;60146;52.498;13.462;2023-04-24T05:10:10;8.37;;;4.10;;
72235;SDS011;60146;52.498;13.462;2023-04-24T05:12:36;8.47;;;3.83;;
72235;SDS011;60146;52.498;13.462;2023-04-24T05:15:01;6.27;;;3.63;;
72235;SDS011;60146;52.498;13.462;2023-04-24T05:17:27;6.00;;;3.90;;
72235;SDS011;60146;52.498;13.462;2023-04-24T05:19:53;7.83;;;3.67;;
72235;SDS011;60146;52.498;13.462;2023-04-24T05:22:18;6.43;;;3.77;;
72235;SDS011;60146;52.498;13.462;2023-04-24T05:24:45;7.40;;;3.63;;
72235;SDS011;60146;52.498;13.462;2023-04-24T05:27:11;6.10;;;3.57;;
72235;SDS011;60146;52.498;13.462;2023-04-24T05:29:37;6.40;;;3.20;;
72235;SDS011;60146;52.498;13.462;2023-04-24T05:32:02;4.67;;;3.03;;
72235;SDS011;60146;52.498;13.462;2023-04-24T05:34:28;5.13;;;2.87;;
72235;SDS011;60146;52.498;13.462;2023-04-24T05:36:53;11.57;;;3.50;;
72235;SDS011;60146;52.498;13.462;2023-04-24T05:39:18;7.67;;;3.13;;
72235;SDS011;60146;52.498;13.462;2023-04-24T05:41:44;7.27;;;3.10;;
72235;SDS011;60146;52.498;13.462;2023-04-24T05:44:10;7.70;;;3.33;;
72235;SDS011;60146;52.498;13.462;2023-04-24T05:46:35;5.00;;;2.90;;
72235;SDS011;60146;52.498;13.462;2023-04-24T05:49:01;4.27;;;2.67;;
72235;SDS011;60146;52.498;13.462;2023-04-24T05:51:27;9.10;;;3.17;;
72235;SDS011;60146;52.498;13.462;2023-04-24T05:53:53;4.10;;;2.43;;
72235;SDS011;60146;52.498;13.462;2023-04-24T05:56:18;5.73;;;2.80;;
72235;SDS011;60146;52.498;13.462;2023-04-24T05:58:45;3.17;;;2.40;;
72235;SDS011;60146;52.498;13.462;2023-04-24T06:01:11;4.93;;;2.40;;
72235;SDS011;60146;52.498;13.462;2023-04-24T06:03:37;5.10;;;2.20;;
72235;SDS011;60146;52.498;13.462;2023-04-24T06:06:04;3.33;;;2.17;;
72235;SDS011;60146;52.498;13.462;2023-04-24T06:08:31;3.00;;;1.97;;
72235;SDS011;60146;52.498;13.462;2023-04-24T06:10:56;2.67;;;1.80;;
72235;SDS011;60146;52.498;13.462;2023-04-24T06:13:22;3.57;;;2.00;;
72235;SDS011;60146;52.498;13.462;2023-04-24T06:15:47;3.50;;;1.80;;
72235;SDS011;60146;52.498;13.462;2023-04-24T06:18:12;3.87;;;1.60;;
72235;SDS011;60146;52.498;13.462;2023-04-24T06:20:38;3.43;;;1.93;;
72235;SDS011;60146;52.498;13.462;2023-04-24T06:23:04;2.17;;;1.50;;
72235;SDS011;60146;52.498;13.462;2023-04-24T06:25:29;2.17;;;1.67;;
72235;SDS011;60146;52.498;13.462;2023-04-24T06:27:55;2.20;;;1.40;;
72235;SDS011;60146;52.498;13.462;2023-04-24T06:30:21;5.27;;;1.50;;
72235;SDS011;60146;52.498;13.462;2023-04-24T06:32:47;2.77;;;1.37;;
72235;SDS011;60146;52.498;13.462;2023-04-24T06:35:12;4.37;;;1.50;;
72235;SDS011;60146;52.498;13.462;2023-04-24T06:37:41;2.47;;;1.50;;
72235;SDS011;60146;52.498;13.462;2023-04-24T06:40:07;1.63;;;1.30;;
72235;SDS011;60146;52.498;13.462;2023-04-24T06:42:33;2.57;;;1.40;;
72235;SDS011;60146;52.498;13.462;2023-04-24T06:45:00;1.57;;;1.30;;
72235;SDS011;60146;52.498;13.462;2023-04-24T06:47:25;2.03;;;1.50;;
72235;SDS011;60146;52.498;13.462;2023-04-24T06:49:50;3.43;;;1.33;;
72235;SDS011;60146;52.498;13.462;2023-04-24T06:52:17;1.87;;;1.47;;
72235;SDS011;60146;52.498;13.462;2023-04-24T06:54:43;1.77;;;1.20;;
72235;SDS011;60146;52.498;13.462;2023-04-24T06:57:08;3.37;;;1.30;;
72235;SDS011;60146;52.498;13.462;2023-04-24T06:59:35;3.80;;;1.47;;
72235;SDS011;60146;52.498;13.462;2023-04-24T07:02:00;2.30;;;1.30;;
72235;SDS011;60146;52.498;13.462;2023-04-24T07:04:25;2.47;;;1.20;;
72235;SDS011;60146;52.498;13.462;2023-04-24T07:06:51;5.53;;;1.20;;
72235;SDS011;60146;52.498;13.462;2023-04-24T07:09:19;1.63;;;1.00;;
72235;SDS011;60146;52.498;13.462;2023-04-24T07:11:45;1.40;;;0.90;;
72235;SDS011;60146;52.498;13.462;2023-04-24T07:14:10;1.30;;;0.90;;
72235;SDS011;60146;52.498;13.462;2023-04-24T07:16:36;1.13;;;0.87;;
72235;SDS011;60146;52.498;13.462;2023-04-24T07:19:01;4.07;;;1.00;;
72235;SDS011;60146;52.498;13.462;2023-04-24T07:21:27;0.80;;;0.80;;
72235;SDS011;60146;52.498;13.462;2023-04-24T07:23:52;2.10;;;1.10;;
72235;SDS011;60146;52.498;13.462;2023-04-24T07:26:18;1.93;;;1.00;;
72235;SDS011;60146;52.498;13.462;2023-04-24T07:28:45;1.00;;;0.90;;
72235;SDS011;60146;52.498;13.462;2023-04-24T07:31:11;2.73;;;1.03;;
72235;SDS011;60146;52.498;13.462;2023-04-24T07:33:36;0.80;;;0.80;;
72235;SDS011;60146;52.498;13.462;2023-04-24T07:36:02;2.80;;;1.10;;
72235;SDS011;60146;52.498;13.462;2023-04-24T07:38:31;6.00;;;1.00;;
72235;SDS011;60146;52.498;13.462;2023-04-24T07:40:56;1.07;;;0.83;;
72235;SDS011;60146;52.498;13.462;2023-04-24T07:43:21;0.60;;;0.60;;
72235;SDS011;60146;52.498;13.462;2023-04-24T07:45:48;3.90;;;1.00;;
72235;SDS011;60146;52.498;13.462;2023-04-24T07:48:16;2.20;;;0.90;;
72235;SDS011;60146;52.498;13.462;2023-04-24T07:50:43;1.07;;;0.60;;
72235;SDS011;60146;52.498;13.462;2023-04-24T07:53:09;0.50;;;0.50;;
72235;SDS011;60146;52.498;13.462;2023-04-24T07:55:35;3.63;;;0.67;;
72235;SDS011;60146;52.498;13.462;2023-04-24T07:58:00;1.43;;;0.40;;
72235;SDS011;60146;52.498;13.462;2023-04-24T08:00:26;0.50;;;0.50;;
72235;SDS011;60146;52.498;13.462;2023-04-24T08:02:51;2.73;;;0.73;;
72235;SDS011;60146;52.498;13.462;2023-04-24T08:05:16;2.23;;;1.00;;
72235;SDS011;60146;52.498;13.462;2023-04-24T08:07:42;0.83;;;0.50;;
72235;SDS011;60146;52.498;13.462;2023-04-24T08:10:09;2.20;;;0.77;;
72235;SDS011;60146;52.498;13.462;2023-04-24T08:12:35;0.80;;;0.60;;
72235;SDS011;60146;52.498;13.462;2023-04-24T08:15:01;1.00;;;0.87;;
72235;SDS011;60146;52.498;13.462;2023-04-24T08:17:27;2.27;;;1.00;;
72235;SDS011;60146;52.498;13.462;2023-04-24T08:19:52;2.30;;;0.90;;
72235;SDS011;60146;52.498;13.462;2023-04-24T08:22:24;1.00;;;0.80;;
72235;SDS011;60146;52.498;13.462;2023-04-24T08:24:49;0.80;;;0.80;;
72235;SDS011;60146;52.498;13.462;2023-04-24T08:27:14;0.60;;;0.60;;
72235;SDS011;60146;52.498;13.462;2023-04-24T08:29:40;0.73;;;0.70;;
72235;SDS011;60146;52.498;13.462;2023-04-24T08:32:05;2.57;;;0.93;;
72235;SDS011;60146;52.498;13.462;2023-04-24T08:34:31;2.95;;;0.90;;
72235;SDS011;60146;52.498;13.462;2023-04-24T08:36:56;0.70;;;0.70;;
72235;SDS011;60146;52.498;13.462;2023-04-24T08:39:22;1.38;;;0.80;;
72235;SDS011;60146;52.498;13.462;2023-04-24T08:41:47;4.13;;;0.70;;
72235;SDS011;60146;52.498;13.462;2023-04-24T08:44:13;1.23;;;0.75;;
72235;SDS011;60146;52.498;13.462;2023-04-24T08:46:41;1.08;;;0.65;;
72235;SDS011;60146;52.498;13.462;2023-04-24T08:49:08;0.82;;;0.68;;
72235;SDS011;60146;52.498;13.462;2023-04-24T08:51:33;0.57;;;0.57;;
72235;SDS011;60146;52.498;13.462;2023-04-24T08:53:59;1.88;;;0.70;;
72235;SDS011;60146;52.498;13.462;2023-04-24T08:56:25;2.03;;;0.70;;
72235;SDS011;60146;52.498;13.462;2023-04-24T08:58:53;2.10;;;0.70;;
72235;SDS011;60146;52.498;13.462;2023-04-24T09:01:21;0.60;;;0.60;;
72235;SDS011;60146;52.498;13.462;2023-04-24T09:03:50;2.08;;;0.60;;
72235;SDS011;60146;52.498;13.462;2023-04-24T09:06:17;1.17;;;0.50;;
72235;SDS011;60146;52.498;13.462;2023-04-24T09:08:44;0.47;;;0.47;;
72235;SDS011;60146;52.498;13.462;2023-04-24T09:11:10;1.42;;;0.70;;
72235;SDS011;60146;52.498;13.462;2023-04-24T09:13:36;0.65;;;0.57;;
72235;SDS011;60146;52.498;13.462;2023-04-24T09:16:02;0.70;;;0.70;;
72235;SDS011;60146;52.498;13.462;2023-04-24T09:18:28;1.55;;;0.60;;
72235;SDS011;60146;52.498;13.462;2023-04-24T09:21:04;1.65;;;0.57;;
72235;SDS011;60146;52.498;13.462;2023-04-24T09:23:32;0.60;;;0.60;;
72235;SDS011;60146;52.498;13.462;2023-04-24T09:25:58;1.15;;;0.60;;
72235;SDS011;60146;52.498;13.462;2023-04-24T09:28:26;0.52;;;0.50;;
72235;SDS011;60146;52.498;13.462;2023-04-24T09:36:18;1.00;;;0.80;;
72235;SDS011;60146;52.498;13.462;2023-04-24T09:38:44;1.03;;;0.60;;
72235;SDS011;60146;52.498;13.462;2023-04-24T09:41:12;1.00;;;0.67;;
72235;SDS011;60146;52.498;13.462;2023-04-24T09:43:38;2.50;;;0.63;;
72235;SDS011;60146;52.498;13.462;2023-04-24T09:46:05;1.13;;;0.67;;
72235;SDS011;60146;52.498;13.462;2023-04-24T09:48:36;1.20;;;0.60;;
72235;SDS011;60146;52.498;13.462;2023-04-24T09:53:28;2.67;;;0.73;;
72235;SDS011;60146;52.498;13.462;2023-04-24T09:55:55;2.20;;;0.87;;
72235;SDS011;60146;52.498;13.462;2023-04-24T09:58:28;2.50;;;0.70;;
72235;SDS011;60146;52.498;13.462;2023-04-24T10:00:54;2.63;;;1.03;;
72235;SDS011;60146;52.498;13.462;2023-04-24T10:03:20;1.53;;;1.00;;
72235;SDS011;60146;52.498;13.462;2023-04-24T10:05:48;0.93;;;0.60;;
72235;SDS011;60146;52.498;13.462;2023-04-24T10:08:13;0.40;;;0.40;;
72235;SDS011;60146;52.498;13.462;2023-04-24T10:10:44;1.48;;;0.80;;
72235;SDS011;60146;52.498;13.462;2023-04-24T10:13:11;1.42;;;0.70;;
72235;SDS011;60146;52.498;13.462;2023-04-24T10:15:37;1.20;;;0.73;;
72235;SDS011;60146;52.498;13.462;2023-04-24T10:18:04;1.90;;;0.93;;
72235;SDS011;60146;52.498;13.462;2023-04-24T10:20:31;1.83;;;0.60;;
72235;SDS011;60146;52.498;13.462;2023-04-24T10:22:57;1.13;;;0.80;;
72235;SDS011;60146;52.498;13.462;2023-04-24T10:25:25;0.65;;;0.47;;
72235;SDS011;60146;52.498;13.462;2023-04-24T10:27:55;4.38;;;0.80;;
72235;SDS011;60146;52.498;13.462;2023-04-24T10:30:28;0.82;;;0.68;;
72235;SDS011;60146;52.498;13.462;2023-04-24T10:32:55;1.20;;;0.70;;
72235;SDS011;60146;52.498;13.462;2023-04-24T10:35:21;0.52;;;0.52;;
72235;SDS011;60146;52.498;13.462;2023-04-24T10:37:50;0.73;;;0.70;;
72235;SDS011;60146;52.498;13.462;2023-04-24T10:40:19;1.10;;;0.60;;
72235;SDS011;60146;52.498;13.462;2023-04-24T10:42:51;3.53;;;0.70;;
72235;SDS011;60146;52.498;13.462;2023-04-24T10:45:21;0.77;;;0.50;;
72235;SDS011;60146;52.498;13.462;2023-04-24T10:47:56;0.50;;;0.50;;
72235;SDS011;60146;52.498;13.462;2023-04-24T10:50:27;1.20;;;0.70;;
72235;SDS011;60146;52.498;13.462;2023-04-24T10:52:55;0.47;;;0.40;;
72235;SDS011;60146;52.498;13.462;2023-04-24T10:55:50;1.75;;;0.40;;
72235;SDS011;60146;52.498;13.462;2023-04-24T10:58:16;1.03;;;0.57;;
72235;SDS011;60146;52.498;13.462;2023-04-24T11:00:55;1.80;;;0.77;;
72235;SDS011;60146;52.498;13.462;2023-04-24T11:03:28;2.23;;;0.77;;
72235;SDS011;60146;52.498;13.462;2023-04-24T11:08:22;1.57;;;0.77;;
72235;SDS011;60146;52.498;13.462;2023-04-24T11:11:10;3.08;;;1.15;;
72235;SDS011;60146;52.498;13.462;2023-04-24T11:24:24;0.50;;;0.50;;
72235;SDS011;60146;52.498;13.462;2023-04-24T11:26:54;1.13;;;0.70;;
72235;SDS011;60146;52.498;13.462;2023-04-24T11:29:23;0.50;;;0.50;;
72235;SDS011;60146;52.498;13.462;2023-04-24T11:35:00;2.17;;;0.70;;
72235;SDS011;60146;52.498;13.462;2023-04-24T11:37:28;3.20;;;1.20;;
72235;SDS011;60146;52.498;13.462;2023-04-24T11:40:04;3.42;;;1.33;;
72235;SDS011;60146;52.498;13.462;2023-04-24T11:42:34;1.63;;;1.50;;
72235;SDS011;60146;52.498;13.462;2023-04-24T11:45:01;7.90;;;1.33;;
72235;SDS011;60146;52.498;13.462;2023-04-24T11:47:29;1.43;;;0.97;;
72235;SDS011;60146;52.498;13.462;2023-04-24T11:49:58;1.37;;;1.10;;
72235;SDS011;60146;52.498;13.462;2023-04-24T11:52:23;3.33;;;1.37;;
72235;SDS011;60146;52.498;13.462;2023-04-24T11:54:49;1.20;;;0.90;;
72235;SDS011;60146;52.498;13.462;2023-04-24T11:57:15;2.80;;;0.95;;
72235;SDS011;60146;52.498;13.462;2023-04-24T11:59:41;0.95;;;0.75;;
72235;SDS011;60146;52.498;13.462;2023-04-24T12:02:07;0.85;;;0.75;;
72235;SDS011;60146;52.498;13.462;2023-04-24T12:04:39;1.95;;;0.90;;
72235;SDS011;60146;52.498;13.462;2023-04-24T12:07:05;4.22;;;1.10;;
72235;SDS011;60146;52.498;13.462;2023-04-24T12:12:12;1.17;;;0.65;;
72235;SDS011;60146;52.498;13.462;2023-04-24T12:14:44;2.17;;;0.82;;
72235;SDS011;60146;52.498;13.462;2023-04-24T12:17:12;1.90;;;0.68;;
72235;SDS011;60146;52.498;13.462;2023-04-24T12:19:38;1.42;;;0.55;;
72235;SDS011;60146;52.498;13.462;2023-04-24T12:22:10;1.67;;;0.50;;
72235;SDS011;60146;52.498;13.462;2023-04-24T12:24:54;1.70;;;0.68;;
72235;SDS011;60146;52.498;13.462;2023-04-24T12:27:21;1.25;;;0.70;;
72235;SDS011;60146;52.498;13.462;2023-04-24T12:29:55;2.47;;;0.80;;
72235;SDS011;60146;52.498;13.462;2023-04-24T12:32:21;5.47;;;0.90;;
72235;SDS011;60146;52.498;13.462;2023-04-24T12:34:47;1.20;;;0.77;;
72235;SDS011;60146;52.498;13.462;2023-04-24T12:37:14;4.22;;;0.90;;
72235;SDS011;60146;52.498;13.462;2023-04-24T12:39:39;1.63;;;0.60;;
72235;SDS011;60146;52.498;13.462;2023-04-24T12:42:26;1.33;;;0.70;;
72235;SDS011;60146;52.498;13.462;2023-04-24T12:44:55;0.85;;;0.85;;
72235;SDS011;60146;52.498;13.462;2023-04-24T12:49:49;1.30;;;0.60;;
72235;SDS011;60146;52.498;13.462;2023-04-24T12:52:15;1.58;;;0.55;;
72235;SDS011;60146;52.498;13.462;2023-04-24T12:54:42;1.55;;;0.68;;
72235;SDS011;60146;52.498;13.462;2023-04-24T12:57:08;0.50;;;0.50;;
72235;SDS011;60146;52.498;13.462;2023-04-24T12:59:34;0.75;;;0.60;;
72235;SDS011;60146;52.498;13.462;2023-04-24T13:01:59;1.25;;;0.60;;
72235;SDS011;60146;52.498;13.462;2023-04-24T13:04:24;0.70;;;0.63;;
72235;SDS011;60146;52.498;13.462;2023-04-24T13:06:50;5.13;;;0.80;;
72235;SDS011;60146;52.498;13.462;2023-04-24T13:09:15;1.58;;;0.70;;
72235;SDS011;60146;52.498;13.462;2023-04-24T13:11:40;2.10;;;0.50;;
72235;SDS011;60146;52.498;13.462;2023-04-24T13:14:06;2.00;;;0.70;;
72235;SDS011;60146;52.498;13.462;2023-04-24T13:16:31;9.93;;;0.80;;
72235;SDS011;60146;52.498;13.462;2023-04-24T13:18:56;1.00;;;0.60;;
72235;SDS011;60146;52.498;13.462;2023-04-24T13:21:22;0.85;;;0.50;;
72235;SDS011;60146;52.498;13.462;2023-04-24T13:23:47;1.02;;;0.60;;
72235;SDS011;60146;52.498;13.462;2023-04-24T13:26:12;0.50;;;0.50;;
72235;SDS011;60146;52.498;13.462;2023-04-24T13:28:38;2.70;;;0.40;;
72235;SDS011;60146;52.498;13.462;2023-04-24T13:31:03;2.85;;;0.50;;
72235;SDS011;60146;52.498;13.462;2023-04-24T13:33:29;1.45;;;0.40;;
72235;SDS011;60146;52.498;13.462;2023-04-24T13:35:54;0.93;;;0.50;;
72235;SDS011;60146;52.498;13.462;2023-04-24T13:38:19;2.20;;;0.55;;
72235;SDS011;60146;52.498;13.462;2023-04-24T13:40:46;1.30;;;0.65;;
72235;SDS011;60146;52.498;13.462;2023-04-24T13:43:11;0.40;;;0.40;;
72235;SDS011;60146;52.498;13.462;2023-04-24T13:45:37;0.68;;;0.50;;
72235;SDS011;60146;52.498;13.462;2023-04-24T13:48:02;1.35;;;0.60;;
72235;SDS011;60146;52.498;13.462;2023-04-24T13:50:28;2.70;;;0.60;;
72235;SDS011;60146;52.498;13.462;2023-04-24T13:52:53;1.15;;;0.40;;
72235;SDS011;60146;52.498;13.462;2023-04-24T13:55:19;2.65;;;0.75;;
72235;SDS011;60146;52.498;13.462;2023-04-24T13:57:44;1.67;;;0.68;;
72235;SDS011;60146;52.498;13.462;2023-04-24T14:00:10;2.42;;;0.70;;
72235;SDS011;60146;52.498;13.462;2023-04-24T14:02:36;1.42;;;0.77;;
72235;SDS011;60146;52.498;13.462;2023-04-24T14:05:02;0.57;;;0.50;;
72235;SDS011;60146;52.498;13.462;2023-04-24T14:07:28;1.73;;;0.77;;
72235;SDS011;60146;52.498;13.462;2023-04-24T14:09:54;4.40;;;0.93;;
72235;SDS011;60146;52.498;13.462;2023-04-24T14:12:19;2.42;;;0.70;;
72235;SDS011;60146;52.498;13.462;2023-04-24T14:14:46;1.83;;;0.70;;
72235;SDS011;60146;52.498;13.462;2023-04-24T14:17:13;1.88;;;0.70;;
72235;SDS011;60146;52.498;13.462;2023-04-24T14:19:39;0.60;;;0.50;;
72235;SDS011;60146;52.498;13.462;2023-04-24T14:22:04;2.22;;;0.70;;
72235;SDS011;60146;52.498;13.462;2023-04-24T14:24:30;2.78;;;0.68;;
72235;SDS011;60146;52.498;13.462;2023-04-24T14:26:55;1.00;;;0.75;;
72235;SDS011;60146;52.498;13.462;2023-04-24T14:29:21;0.55;;;0.52;;
72235;SDS011;60146;52.498;13.462;2023-04-24T14:31:47;0.95;;;0.70;;
72235;SDS011;60146;52.498;13.462;2023-04-24T14:34:13;0.73;;;0.60;;
72235;SDS011;60146;52.498;13.462;2023-04-24T14:36:38;2.00;;;0.60;;
72235;SDS011;60146;52.498;13.462;2023-04-24T14:39:04;0.95;;;0.52;;
72235;SDS011;60146;52.498;13.462;2023-04-24T14:41:31;1.35;;;0.70;;
72235;SDS011;60146;52.498;13.462;2023-04-24T14:44:00;2.95;;;0.80;;
72235;SDS011;60146;52.498;13.462;2023-04-24T14:46:26;0.65;;;0.65;;
72235;SDS011;60146;52.498;13.462;2023-04-24T14:48:51;0.95;;;0.80;;
72235;SDS011;60146;52.498;13.462;2023-04-24T14:51:17;3.67;;;0.80;;
72235;SDS011;60146;52.498;13.462;2023-04-24T14:53:42;1.83;;;0.90;;
72235;SDS011;60146;52.498;13.462;2023-04-24T14:56:07;1.13;;;0.80;;
72235;SDS011;60146;52.498;13.462;2023-04-24T14:58:32;0.82;;;0.75;;
72235;SDS011;60146;52.498;13.462;2023-04-24T15:00:58;2.10;;;0.70;;
72235;SDS011;60146;52.498;13.462;2023-04-24T15:03:23;1.00;;;0.90;;
72235;SDS011;60146;52.498;13.462;2023-04-24T15:05:49;1.35;;;0.60;;